createdAt,value
2019-01-19T00:00:57.687Z,40.01
2019-01-19T00:01:57.525Z,40.08
2019-01-19T00:02:57.604Z,40.02
2019-01-19T00:03:57.657Z,40.06
2019-01-19T00:04:57.512Z,40.05
2019-01-19T00:05:57.885Z,40.01
2019-01-19T00:06:57.569Z,40.03
2019-01-19T00:07:57.551Z,40
2019-01-19T00:08:57.626Z,40.07
2019-01-19T00:09:57.564Z,40.07
2019-01-19T00:10:57.714Z,40.08
2019-01-19T00:11:57.613Z,40.08
2019-01-19T00:12:57.649Z,40.06
2019-01-19T00:13:57.561Z,40.02
2019-01-19T00:14:57.753Z,40.05
2019-01-19T00:15:57.726Z,40.07
2019-01-19T00:16:57.623Z,40.07
2019-01-19T00:17:57.761Z,40.11
2019-01-19T00:18:57.848Z,40.11
2019-01-19T00:19:57.673Z,40.06
2019-01-19T00:20:57.521Z,40.03
2019-01-19T00:21:57.990Z,40.01
2019-01-19T00:22:57.875Z,40.06
2019-01-19T00:23:57.577Z,40.02
2019-01-19T00:24:57.852Z,40.06
2019-01-19T00:25:57.616Z,40.05
2019-01-19T00:26:57.751Z,40.04
2019-01-19T00:27:57.847Z,40.06
2019-01-19T00:28:58.265Z,40.05
2019-01-19T00:29:57.800Z,40.07
2019-01-19T00:30:57.905Z,40.09
2019-01-19T00:31:58.141Z,40.06
2019-01-19T00:32:57.829Z,39.98
2019-01-19T00:33:57.750Z,40.02
2019-01-19T00:34:57.650Z,40.03
2019-01-19T00:35:57.570Z,40.03
2019-01-19T00:36:57.775Z,39.99
2019-01-19T00:37:57.613Z,40.03
2019-01-19T00:38:58.036Z,40
2019-01-19T00:39:57.708Z,40.04
2019-01-19T00:40:58.088Z,40.03
2019-01-19T00:41:59.419Z,40.06
2019-01-19T00:42:58.620Z,40.1
2019-01-19T00:43:58.440Z,40.06
2019-01-19T00:44:57.760Z,40.06
2019-01-19T00:45:57.962Z,40.07
2019-01-19T00:46:58.037Z,40
2019-01-19T00:47:59.412Z,40.04
2019-01-19T00:48:57.972Z,40.07
2019-01-19T00:49:57.454Z,40
2019-01-19T00:50:57.579Z,40.04
2019-01-19T00:51:57.732Z,40.06
2019-01-19T00:52:59.093Z,40.08
2019-01-19T00:53:57.498Z,40.06
2019-01-19T00:54:57.625Z,40.04
2019-01-19T00:55:57.759Z,40.06
2019-01-19T00:56:57.466Z,39.99
2019-01-19T00:57:57.820Z,39.97
2019-01-19T00:58:57.618Z,40.03
2019-01-19T00:59:57.480Z,40.02
2019-01-19T01:00:57.903Z,39.99
2019-01-19T01:01:57.689Z,40
2019-01-19T01:02:57.485Z,39.98
2019-01-19T01:03:57.666Z,40.02
2019-01-19T01:04:57.791Z,40.02
2019-01-19T01:05:57.518Z,40.01
2019-01-19T01:06:57.604Z,40.01
2019-01-19T01:07:57.586Z,40.01
2019-01-19T01:08:59.349Z,40.01
2019-01-19T01:09:57.609Z,40.01
2019-01-19T01:10:57.856Z,39.98
2019-01-19T01:11:57.974Z,39.96
2019-01-19T01:12:57.573Z,39.96
2019-01-19T01:13:57.980Z,40
2019-01-19T01:14:57.679Z,40
2019-01-19T01:15:57.860Z,40.01
2019-01-19T01:16:57.652Z,40.04
2019-01-19T01:17:59.354Z,40.01
2019-01-19T01:18:57.997Z,39.89
2019-01-19T01:19:57.926Z,39.99
2019-01-19T01:20:57.706Z,40
2019-01-19T01:21:58.008Z,40.01
2019-01-19T01:22:57.928Z,39.98
2019-01-19T01:23:57.725Z,40
2019-01-19T01:24:57.760Z,39.95
2019-01-19T01:25:58.122Z,40.01
2019-01-19T01:26:57.742Z,40.02
2019-01-19T01:27:57.759Z,39.99
2019-01-19T01:28:57.432Z,39.99
2019-01-19T01:29:57.769Z,40.01
2019-01-19T01:30:57.626Z,40.03
2019-01-19T01:31:57.963Z,40.01
2019-01-19T01:32:57.642Z,40.01
2019-01-19T01:33:57.472Z,40.02
2019-01-19T01:34:57.928Z,40.01
2019-01-19T01:35:57.720Z,40.01
2019-01-19T01:36:57.832Z,39.99
2019-01-19T01:37:57.450Z,40
2019-01-19T01:38:57.609Z,40.01
2019-01-19T01:39:57.664Z,40.01
2019-01-19T01:40:57.979Z,40.02
2019-01-19T01:41:58.051Z,40
2019-01-19T01:42:57.894Z,39.95
2019-01-19T01:43:57.417Z,39.99
2019-01-19T01:44:57.542Z,39.96
2019-01-19T01:45:57.627Z,40.02
2019-01-19T01:46:57.668Z,39.94
2019-01-19T01:47:57.695Z,39.94
2019-01-19T01:48:57.622Z,39.99
2019-01-19T01:49:57.336Z,39.93
2019-01-19T01:50:57.547Z,39.94
2019-01-19T01:51:57.598Z,39.96
2019-01-19T01:52:57.637Z,39.9
2019-01-19T01:53:57.633Z,39.91
2019-01-19T01:54:57.608Z,39.89
2019-01-19T01:55:57.620Z,39.91
2019-01-19T01:56:57.516Z,39.88
2019-01-19T01:57:57.506Z,39.97
2019-01-19T01:58:57.678Z,39.94
2019-01-19T01:59:57.661Z,39.92
2019-01-19T02:00:57.637Z,39.91
2019-01-19T02:01:57.705Z,39.94
2019-01-19T02:02:57.735Z,39.91
2019-01-19T02:03:57.860Z,39.96
2019-01-19T02:04:58.303Z,39.97
2019-01-19T02:05:58.514Z,39.94
2019-01-19T02:06:57.726Z,39.94
2019-01-19T02:07:57.833Z,39.95
2019-01-19T02:08:57.875Z,40.01
2019-01-19T02:09:57.613Z,39.91
2019-01-19T02:10:57.640Z,39.93
2019-01-19T02:11:57.500Z,39.93
2019-01-19T02:12:57.763Z,39.91
2019-01-19T02:13:57.625Z,39.98
2019-01-19T02:14:57.781Z,39.97
2019-01-19T02:15:57.597Z,39.92
2019-01-19T02:16:57.627Z,39.86
2019-01-19T02:17:57.405Z,39.88
2019-01-19T02:18:57.662Z,39.91
2019-01-19T02:19:57.593Z,39.96
2019-01-19T02:20:57.852Z,39.93
2019-01-19T02:21:57.838Z,39.94
2019-01-19T02:22:57.567Z,39.88
2019-01-19T02:23:57.486Z,39.92
2019-01-19T02:24:57.451Z,39.9
2019-01-19T02:25:57.763Z,39.85
2019-01-19T02:26:57.642Z,39.94
2019-01-19T02:27:57.792Z,39.91
2019-01-19T02:28:57.570Z,39.94
2019-01-19T02:29:57.725Z,39.88
2019-01-19T02:30:57.550Z,39.81
2019-01-19T02:31:57.570Z,39.94
2019-01-19T02:32:57.620Z,39.89
2019-01-19T02:33:57.634Z,39.85
2019-01-19T02:34:57.853Z,39.87
2019-01-19T02:35:57.452Z,39.92
2019-01-19T02:36:57.467Z,39.88
2019-01-19T02:37:57.857Z,39.87
2019-01-19T02:38:57.724Z,39.93
2019-01-19T02:39:57.724Z,39.91
2019-01-19T02:40:57.663Z,39.87
2019-01-19T02:41:57.534Z,39.89
2019-01-19T02:42:57.635Z,39.88
2019-01-19T02:43:57.790Z,39.96
2019-01-19T02:44:57.478Z,39.9
2019-01-19T02:45:58.259Z,39.88
2019-01-19T02:46:58.030Z,39.83
2019-01-19T02:47:57.720Z,39.87
2019-01-19T02:48:57.805Z,39.9
2019-01-19T02:49:57.587Z,39.87
2019-01-19T02:50:57.541Z,39.91
2019-01-19T02:51:57.668Z,39.88
2019-01-19T02:52:57.777Z,39.93
2019-01-19T02:53:57.927Z,39.93
2019-01-19T02:54:57.576Z,39.91
2019-01-19T02:55:58.283Z,39.79
2019-01-19T02:56:57.732Z,39.91
2019-01-19T02:57:58.013Z,39.87
2019-01-19T02:58:57.590Z,39.87
2019-01-19T02:59:59.459Z,39.87
2019-01-19T03:00:57.465Z,39.9
2019-01-19T03:01:57.535Z,39.91
2019-01-19T03:02:57.609Z,39.9
2019-01-19T03:03:57.366Z,39.88
2019-01-19T03:04:58.557Z,39.93
2019-01-19T03:05:57.558Z,39.89
2019-01-19T03:06:57.466Z,39.84
2019-01-19T03:07:57.539Z,39.92
2019-01-19T03:08:57.636Z,39.89
2019-01-19T03:09:57.893Z,39.88
2019-01-19T03:10:57.907Z,39.92
2019-01-19T03:11:57.532Z,39.96
2019-01-19T03:12:57.486Z,39.87
2019-01-19T03:13:57.774Z,39.91
2019-01-19T03:14:57.906Z,39.87
2019-01-19T03:15:57.969Z,39.89
2019-01-19T03:16:57.520Z,39.88
2019-01-19T03:17:57.828Z,39.86
2019-01-19T03:18:57.546Z,39.92
2019-01-19T03:19:57.542Z,39.88
2019-01-19T03:20:57.734Z,39.89
2019-01-19T03:21:57.547Z,39.87
2019-01-19T03:22:57.934Z,39.85
2019-01-19T03:23:57.575Z,39.9
2019-01-19T03:24:57.371Z,39.88
2019-01-19T03:25:57.543Z,39.9
2019-01-19T03:26:57.889Z,39.88
2019-01-19T03:27:57.591Z,39.85
2019-01-19T03:28:57.726Z,39.85
2019-01-19T03:29:57.658Z,39.87
2019-01-19T03:30:57.747Z,39.87
2019-01-19T03:31:57.555Z,39.91
2019-01-19T03:32:58.091Z,39.85
2019-01-19T03:33:57.609Z,39.89
2019-01-19T03:34:57.576Z,39.88
2019-01-19T03:36:04.772Z,39.88
2019-01-19T03:36:57.540Z,39.86
2019-01-19T03:37:57.537Z,39.79
2019-01-19T03:38:57.543Z,39.84
2019-01-19T03:39:57.522Z,39.84
2019-01-19T03:40:57.456Z,39.87
2019-01-19T03:41:57.613Z,39.78
2019-01-19T03:42:57.376Z,39.82
2019-01-19T03:43:58.143Z,39.92
2019-01-19T03:44:57.545Z,39.91
2019-01-19T03:45:57.541Z,39.88
2019-01-19T03:46:57.831Z,39.8
2019-01-19T03:47:57.658Z,39.88
2019-01-19T03:48:57.678Z,39.84
2019-01-19T03:49:57.824Z,39.84
2019-01-19T03:50:57.712Z,39.83
2019-01-19T03:51:57.891Z,39.85
2019-01-19T03:52:57.847Z,39.79
2019-01-19T03:53:57.676Z,39.79
2019-01-19T03:54:57.522Z,39.84
2019-01-19T03:55:57.549Z,39.8
2019-01-19T03:56:57.574Z,39.87
2019-01-19T03:57:57.487Z,39.84
2019-01-19T03:58:57.562Z,39.79
2019-01-19T03:59:57.712Z,39.88
2019-01-19T04:00:57.849Z,39.89
2019-01-19T04:01:57.671Z,39.86
2019-01-19T04:02:57.533Z,39.81
2019-01-19T04:03:57.770Z,39.85
2019-01-19T04:04:57.650Z,39.88
2019-01-19T04:05:57.612Z,39.87
2019-01-19T04:06:57.671Z,39.83
2019-01-19T04:07:57.506Z,39.82
2019-01-19T04:08:57.879Z,39.83
2019-01-19T04:09:57.403Z,39.85
2019-01-19T04:10:59.413Z,39.83
2019-01-19T04:11:58.597Z,39.82
2019-01-19T04:12:57.730Z,39.83
2019-01-19T04:13:57.815Z,39.83
2019-01-19T04:14:58.544Z,39.91
2019-01-19T04:15:57.608Z,39.83
2019-01-19T04:16:57.833Z,39.87
2019-01-19T04:17:57.837Z,39.86
2019-01-19T04:18:57.665Z,39.87
2019-01-19T04:19:57.778Z,39.84
2019-01-19T04:20:57.559Z,39.86
2019-01-19T04:21:57.481Z,39.8
2019-01-19T04:22:57.889Z,39.83
2019-01-19T04:23:57.534Z,39.86
2019-01-19T04:24:57.700Z,39.83
2019-01-19T04:25:57.473Z,39.79
2019-01-19T04:26:57.628Z,39.87
2019-01-19T04:27:57.750Z,39.86
2019-01-19T04:28:57.672Z,39.88
2019-01-19T04:29:59.445Z,39.8
2019-01-19T04:30:57.355Z,39.79
2019-01-19T04:31:57.879Z,39.84
2019-01-19T04:32:57.531Z,39.82
2019-01-19T04:33:57.741Z,39.81
2019-01-19T04:34:57.513Z,39.83
2019-01-19T04:35:57.993Z,39.79
2019-01-19T04:36:57.673Z,39.85
2019-01-19T04:37:57.484Z,39.88
2019-01-19T04:38:57.778Z,39.82
2019-01-19T04:39:57.525Z,39.77
2019-01-19T04:40:58.034Z,39.79
2019-01-19T04:41:57.536Z,39.85
2019-01-19T04:42:57.641Z,39.83
2019-01-19T04:43:57.825Z,39.77
2019-01-19T04:44:57.624Z,39.76
2019-01-19T04:45:57.478Z,39.81
2019-01-19T04:46:57.659Z,39.8
2019-01-19T04:47:57.856Z,39.85
2019-01-19T04:48:59.276Z,39.82
2019-01-19T04:49:57.587Z,39.82
2019-01-19T04:50:57.876Z,39.8
2019-01-19T04:51:57.689Z,39.79
2019-01-19T04:52:57.553Z,39.86
2019-01-19T04:53:57.524Z,39.81
2019-01-19T04:54:57.722Z,39.84
2019-01-19T04:55:57.607Z,39.82
2019-01-19T04:56:57.876Z,39.78
2019-01-19T04:57:57.549Z,39.81
2019-01-19T04:58:57.736Z,39.75
2019-01-19T04:59:58.469Z,39.71
2019-01-19T05:00:57.684Z,39.68
2019-01-19T05:01:57.847Z,39.74
2019-01-19T05:02:57.474Z,39.78
2019-01-19T05:03:57.818Z,39.78
2019-01-19T05:04:57.886Z,39.79
2019-01-19T05:05:57.904Z,39.83
2019-01-19T05:06:57.291Z,39.84
2019-01-19T05:07:57.739Z,39.83
2019-01-19T05:08:57.645Z,39.85
2019-01-19T05:09:57.698Z,39.9
2019-01-19T05:10:57.626Z,39.93
2019-01-19T05:11:57.575Z,40
2019-01-19T05:12:57.674Z,40.01
2019-01-19T05:13:57.560Z,40.02
2019-01-19T05:14:57.650Z,39.95
2019-01-19T05:15:57.364Z,39.96
2019-01-19T05:16:57.713Z,39.92
2019-01-19T05:17:57.553Z,39.93
2019-01-19T05:18:57.277Z,39.91
2019-01-19T05:19:57.590Z,39.89
2019-01-19T05:20:57.537Z,39.86
2019-01-19T05:21:57.635Z,39.91
2019-01-19T05:22:57.608Z,39.77
2019-01-19T05:23:57.707Z,39.77
2019-01-19T05:24:57.579Z,39.78
2019-01-19T05:25:57.440Z,39.74
2019-01-19T05:26:57.478Z,39.67
2019-01-19T05:27:57.724Z,39.71
2019-01-19T05:28:57.318Z,39.71
2019-01-19T05:29:57.517Z,39.67
2019-01-19T05:30:59.469Z,39.67
2019-01-19T05:31:57.631Z,39.68
2019-01-19T05:32:58.000Z,39.63
2019-01-19T05:33:57.543Z,39.65
2019-01-19T05:34:57.340Z,39.64
2019-01-19T05:35:57.935Z,39.62
2019-01-19T05:36:57.442Z,39.66
2019-01-19T05:37:57.499Z,39.6
2019-01-19T05:38:57.818Z,39.62
2019-01-19T05:39:57.723Z,39.61
2019-01-19T05:40:57.613Z,39.6
2019-01-19T05:41:57.461Z,39.51
2019-01-19T05:42:57.474Z,39.58
2019-01-19T05:43:57.957Z,39.6
2019-01-19T05:44:57.346Z,39.55
2019-01-19T05:45:57.585Z,39.55
2019-01-19T05:46:57.814Z,39.55
2019-01-19T05:47:57.596Z,39.5
2019-01-19T05:48:58.009Z,39.54
2019-01-19T05:49:57.501Z,39.53
2019-01-19T05:50:57.403Z,39.52
2019-01-19T05:51:57.487Z,39.5
2019-01-19T05:52:57.907Z,39.54
2019-01-19T05:53:57.701Z,39.48
2019-01-19T05:54:57.719Z,39.52
2019-01-19T05:55:57.777Z,39.51
2019-01-19T05:56:57.911Z,39.54
2019-01-19T05:57:57.751Z,39.47
2019-01-19T05:58:59.349Z,39.45
2019-01-19T05:59:57.557Z,39.45
2019-01-19T06:00:57.660Z,39.48
2019-01-19T06:01:57.387Z,39.44
2019-01-19T06:02:57.579Z,39.47
2019-01-19T06:03:57.494Z,39.49
2019-01-19T06:04:57.532Z,39.47
2019-01-19T06:05:57.887Z,39.4
2019-01-19T06:06:57.581Z,39.45
2019-01-19T06:07:57.281Z,39.43
2019-01-19T06:08:57.922Z,39.47
2019-01-19T06:09:59.299Z,39.45
2019-01-19T06:10:58.854Z,39.38
2019-01-19T06:11:57.955Z,39.44
2019-01-19T06:12:57.590Z,39.39
2019-01-19T06:13:57.381Z,39.39
2019-01-19T06:14:57.534Z,39.3
2019-01-19T06:15:57.302Z,39.41
2019-01-19T06:16:57.673Z,39.34
2019-01-19T06:17:57.566Z,39.33
2019-01-19T06:18:57.826Z,39.26
2019-01-19T06:19:57.429Z,39.35
2019-01-19T06:20:57.897Z,39.3
2019-01-19T06:21:57.340Z,39.35
2019-01-19T06:22:57.740Z,39.34
2019-01-19T06:23:57.688Z,39.31
2019-01-19T06:24:57.578Z,39.33
2019-01-19T06:25:57.445Z,39.28
2019-01-19T06:26:57.706Z,39.28
2019-01-19T06:27:57.518Z,39.29
2019-01-19T06:28:59.253Z,39.32
2019-01-19T06:29:57.523Z,39.29
2019-01-19T06:30:57.318Z,39.24
2019-01-19T06:31:57.690Z,39.24
2019-01-19T06:32:57.801Z,39.2
2019-01-19T06:33:57.478Z,39.27
2019-01-19T06:34:59.211Z,39.22
2019-01-19T06:35:57.709Z,39.26
2019-01-19T06:36:57.566Z,39.21
2019-01-19T06:37:57.386Z,39.24
2019-01-19T06:38:57.427Z,39.24
2019-01-19T06:39:57.549Z,39.03
2019-01-19T06:40:57.724Z,39.17
2019-01-19T06:41:58.048Z,39.23
2019-01-19T06:42:58.048Z,39.19
2019-01-19T06:43:57.279Z,39.18
2019-01-19T06:44:57.431Z,39.16
2019-01-19T06:45:57.390Z,39.08
2019-01-19T06:46:57.897Z,39.13
2019-01-19T06:47:58.664Z,39.1
2019-01-19T06:48:57.695Z,39.14
2019-01-19T06:49:57.686Z,39.1
2019-01-19T06:50:57.607Z,39.11
2019-01-19T06:51:57.602Z,39.14
2019-01-19T06:52:57.750Z,39.12
2019-01-19T06:54:01.950Z,39.14
2019-01-19T06:54:57.617Z,39.15
2019-01-19T06:55:57.539Z,39.08
2019-01-19T06:56:57.567Z,39.08
2019-01-19T06:57:57.660Z,39.1
2019-01-19T06:58:57.553Z,39.06
2019-01-19T06:59:57.565Z,39
2019-01-19T07:00:57.691Z,39.02
2019-01-19T07:01:57.541Z,39.05
2019-01-19T07:02:57.295Z,39.01
2019-01-19T07:03:57.322Z,39.04
2019-01-19T07:04:57.541Z,39.07
2019-01-19T07:05:57.711Z,39.02
2019-01-19T07:07:03.088Z,39.02
2019-01-19T07:07:57.659Z,39.04
2019-01-19T07:08:57.815Z,39.02
2019-01-19T07:09:57.389Z,39.02
2019-01-19T07:10:57.507Z,38.94
2019-01-19T07:11:57.446Z,38.98
2019-01-19T07:12:57.874Z,38.98
2019-01-19T07:13:59.077Z,39
2019-01-19T07:14:57.447Z,39.05
2019-01-19T07:15:57.808Z,39.01
2019-01-19T07:16:57.804Z,39.02
2019-01-19T07:17:57.780Z,39.07
2019-01-19T07:18:57.733Z,38.91
2019-01-19T07:19:58.388Z,38.98
2019-01-19T07:20:57.551Z,38.95
2019-01-19T07:21:58.373Z,38.99
2019-01-19T07:22:57.862Z,38.86
2019-01-19T07:23:57.847Z,38.95
2019-01-19T07:24:57.489Z,38.94
2019-01-19T07:25:57.576Z,38.91
2019-01-19T07:26:58.185Z,38.98
2019-01-19T07:27:57.806Z,39
2019-01-19T07:28:57.353Z,38.95
2019-01-19T07:29:57.447Z,39.03
2019-01-19T07:30:57.468Z,38.97
2019-01-19T07:31:57.401Z,38.9
2019-01-19T07:32:57.634Z,39
2019-01-19T07:33:57.512Z,38.98
2019-01-19T07:34:57.725Z,38.91
2019-01-19T07:35:57.632Z,38.94
2019-01-19T07:36:57.758Z,38.94
2019-01-19T07:37:57.574Z,38.92
2019-01-19T07:38:57.445Z,38.85
2019-01-19T07:39:57.690Z,38.92
2019-01-19T07:40:57.591Z,38.91
2019-01-19T07:41:57.752Z,38.96
2019-01-19T07:42:57.621Z,38.91
2019-01-19T07:43:58.192Z,38.85
2019-01-19T07:44:57.712Z,38.93
2019-01-19T07:45:57.439Z,38.84
2019-01-19T07:46:58.022Z,38.93
2019-01-19T07:47:58.036Z,38.84
2019-01-19T07:48:57.904Z,38.87
2019-01-19T07:49:57.707Z,38.79
2019-01-19T07:50:57.742Z,38.88
2019-01-19T07:51:57.526Z,38.77
2019-01-19T07:52:57.923Z,38.81
2019-01-19T07:53:57.336Z,38.9
2019-01-19T07:54:58.656Z,38.83
2019-01-19T07:55:57.786Z,38.79
2019-01-19T07:56:57.791Z,38.81
2019-01-19T07:57:57.852Z,38.81
2019-01-19T07:58:57.513Z,38.82
2019-01-19T07:59:57.496Z,38.73
2019-01-19T08:00:57.374Z,38.79
2019-01-19T08:01:57.377Z,38.78
2019-01-19T08:02:57.499Z,38.82
2019-01-19T08:03:57.350Z,38.72
2019-01-19T08:04:57.467Z,38.77
2019-01-19T08:05:57.561Z,38.8
2019-01-19T08:06:57.469Z,38.71
2019-01-19T08:07:57.587Z,38.75
2019-01-19T08:08:57.854Z,38.72
2019-01-19T08:09:57.791Z,38.68
2019-01-19T08:10:57.354Z,38.77
2019-01-19T08:11:57.361Z,38.73
2019-01-19T08:12:58.322Z,38.69
2019-01-19T08:13:57.704Z,38.65
2019-01-19T08:14:57.546Z,38.66
2019-01-19T08:15:57.619Z,38.69
2019-01-19T08:16:57.476Z,38.71
2019-01-19T08:17:57.216Z,38.67
2019-01-19T08:18:57.553Z,38.68
2019-01-19T08:19:57.709Z,38.69
2019-01-19T08:20:58.079Z,38.68
2019-01-19T08:21:57.792Z,38.69
2019-01-19T08:22:57.503Z,38.67
2019-01-19T08:23:57.885Z,38.65
2019-01-19T08:24:57.344Z,38.67
2019-01-19T08:25:57.433Z,38.99
2019-01-19T08:26:57.901Z,39.26
2019-01-19T08:27:57.606Z,39.55
2019-01-19T08:28:57.793Z,39.59
2019-01-19T08:29:57.933Z,39.53
2019-01-19T08:30:57.616Z,39.7
2019-01-19T08:31:57.452Z,39.67
2019-01-19T08:32:57.922Z,39.83
2019-01-19T08:33:57.335Z,39.87
2019-01-19T08:34:57.646Z,39.78
2019-01-19T08:35:57.634Z,39.12
2019-01-19T08:36:57.606Z,39.08
2019-01-19T08:37:57.887Z,39.05
2019-01-19T08:38:57.705Z,38.89
2019-01-19T08:39:57.356Z,38.91
2019-01-19T08:40:57.437Z,38.85
2019-01-19T08:41:57.685Z,38.86
2019-01-19T08:42:57.264Z,38.85
2019-01-19T08:43:57.624Z,38.86
2019-01-19T08:44:57.712Z,38.86
2019-01-19T08:45:57.410Z,38.86
2019-01-19T08:46:57.630Z,38.86
2019-01-19T08:47:57.706Z,38.89
2019-01-19T08:48:57.266Z,38.85
2019-01-19T08:49:57.553Z,38.85
2019-01-19T08:50:57.547Z,38.84
2019-01-19T08:51:57.579Z,38.81
2019-01-19T08:52:57.234Z,38.84
2019-01-19T08:53:57.502Z,38.84
2019-01-19T08:54:58.558Z,38.88
2019-01-19T08:55:57.677Z,38.87
2019-01-19T08:56:58.005Z,38.85
2019-01-19T08:57:57.430Z,38.82
2019-01-19T08:58:57.311Z,38.86
2019-01-19T08:59:57.408Z,38.87
2019-01-19T09:00:57.828Z,38.79
2019-01-19T09:01:57.340Z,38.84
2019-01-19T09:02:58.357Z,38.85
2019-01-19T09:03:59.326Z,38.84
2019-01-19T09:04:57.384Z,38.84
2019-01-19T09:05:57.882Z,38.83
2019-01-19T09:06:57.378Z,38.82
2019-01-19T09:07:57.313Z,38.84
2019-01-19T09:08:57.343Z,38.7
2019-01-19T09:09:57.352Z,38.83
2019-01-19T09:10:57.106Z,38.82
2019-01-19T09:11:57.697Z,38.79
2019-01-19T09:12:57.786Z,38.7
2019-01-19T09:13:57.307Z,38.81
2019-01-19T09:14:57.274Z,38.73
2019-01-19T09:15:57.357Z,38.8
2019-01-19T09:16:58.330Z,38.73
2019-01-19T09:17:58.211Z,38.67
2019-01-19T09:18:57.692Z,38.68
2019-01-19T09:19:57.693Z,38.57
2019-01-19T09:20:57.411Z,38.69
2019-01-19T09:21:57.392Z,38.63
2019-01-19T09:22:57.813Z,38.67
2019-01-19T09:23:58.276Z,38.66
2019-01-19T09:24:57.526Z,38.68
2019-01-19T09:25:58.311Z,38.69
2019-01-19T09:26:57.717Z,38.63
2019-01-19T09:27:57.946Z,38.58
2019-01-19T09:28:57.416Z,38.52
2019-01-19T09:29:57.763Z,38.55
2019-01-19T09:30:57.477Z,38.61
2019-01-19T09:31:57.755Z,38.59
2019-01-19T09:32:57.769Z,38.46
2019-01-19T09:33:57.371Z,38.57
2019-01-19T09:34:57.489Z,38.48
2019-01-19T09:35:57.479Z,38.51
2019-01-19T09:36:57.354Z,38.53
2019-01-19T09:37:58.774Z,38.57
2019-01-19T09:38:57.976Z,38.55
2019-01-19T09:39:57.798Z,38.48
2019-01-19T09:41:01.332Z,38.5
2019-01-19T09:41:57.292Z,38.58
2019-01-19T09:42:57.700Z,38.42
2019-01-19T09:43:58.060Z,38.48
2019-01-19T09:44:57.363Z,38.49
2019-01-19T09:45:57.348Z,38.46
2019-01-19T09:46:58.117Z,38.5
2019-01-19T09:47:58.678Z,38.52
2019-01-19T09:48:57.613Z,38.47
2019-01-19T09:49:57.497Z,38.52
2019-01-19T09:50:57.732Z,38.5
2019-01-19T09:51:57.600Z,38.42
2019-01-19T09:52:58.209Z,38.33
2019-01-19T09:53:57.402Z,38.5
2019-01-19T09:54:59.576Z,38.37
2019-01-19T09:55:57.641Z,38.35
2019-01-19T09:56:57.665Z,38.46
2019-01-19T09:57:57.983Z,38.41
2019-01-19T09:58:57.995Z,38.41
2019-01-19T09:59:57.792Z,38.42
2019-01-19T10:01:00.103Z,38.44
2019-01-19T10:01:57.859Z,38.33
2019-01-19T10:02:57.667Z,38.42
2019-01-19T10:03:57.644Z,38.37
2019-01-19T10:04:57.635Z,38.36
2019-01-19T10:05:57.585Z,38.37
2019-01-19T10:06:57.727Z,38.28
2019-01-19T10:07:57.378Z,38.32
2019-01-19T10:08:57.224Z,38.43
2019-01-19T10:09:57.442Z,38.37
2019-01-19T10:10:57.516Z,38.42
2019-01-19T10:11:59.412Z,38.36
2019-01-19T10:12:57.387Z,38.39
2019-01-19T10:13:57.756Z,38.25
2019-01-19T10:14:57.794Z,38.4
2019-01-19T10:15:57.707Z,38.36
2019-01-19T10:16:57.194Z,38.35
2019-01-19T10:17:57.393Z,38.33
2019-01-19T10:18:57.473Z,38.37
2019-01-19T10:19:57.323Z,38.35
2019-01-19T10:20:57.276Z,38.3
2019-01-19T10:21:57.393Z,38.35
2019-01-19T10:22:57.579Z,38.17
2019-01-19T10:23:57.373Z,38.31
2019-01-19T10:24:57.348Z,38.35
2019-01-19T10:25:57.515Z,38.35
2019-01-19T10:26:57.761Z,38.31
2019-01-19T10:27:57.639Z,38.43
2019-01-19T10:28:57.547Z,38.45
2019-01-19T10:29:57.193Z,38.59
2019-01-19T10:30:57.689Z,38.37
2019-01-19T10:31:57.662Z,38.43
2019-01-19T10:32:57.635Z,38.25
2019-01-19T10:33:57.574Z,38.45
2019-01-19T10:34:57.499Z,38.64
2019-01-19T10:35:57.604Z,38.5
2019-01-19T10:36:58.134Z,38.42
2019-01-19T10:37:57.954Z,38.43
2019-01-19T10:38:57.594Z,38.45
2019-01-19T10:39:57.543Z,38.32
2019-01-19T10:40:57.980Z,38.46
2019-01-19T10:41:57.586Z,38.24
2019-01-19T10:42:57.344Z,38.22
2019-01-19T10:43:57.619Z,38.22
2019-01-19T10:44:57.662Z,38.19
2019-01-19T10:45:57.793Z,38.14
2019-01-19T10:46:57.857Z,38.15
2019-01-19T10:47:57.622Z,38.44
2019-01-19T10:48:57.416Z,38.11
2019-01-19T10:49:57.701Z,38.28
2019-01-19T10:50:57.393Z,38.21
2019-01-19T10:51:59.704Z,37.99
2019-01-19T10:52:57.506Z,38.35
2019-01-19T10:53:57.665Z,38
2019-01-19T10:54:57.620Z,38.16
2019-01-19T10:55:57.774Z,38.33
2019-01-19T10:56:57.452Z,38.13
2019-01-19T10:57:57.336Z,38.04
2019-01-19T10:58:57.767Z,38.3
2019-01-19T10:59:57.596Z,37.97
2019-01-19T11:00:57.634Z,38.19
2019-01-19T11:01:57.892Z,37.79
2019-01-19T11:02:57.980Z,37.9
2019-01-19T11:03:57.306Z,37.79
2019-01-19T11:04:58.355Z,37.9
2019-01-19T11:05:57.651Z,37.93
2019-01-19T11:06:57.735Z,38.05
2019-01-19T11:08:04.121Z,38.07
2019-01-19T11:08:57.226Z,38.09
2019-01-19T11:09:58.344Z,38.06
2019-01-19T11:10:57.803Z,38.12
2019-01-19T11:11:57.317Z,38.13
2019-01-19T11:12:57.982Z,38.16
2019-01-19T11:13:57.309Z,38.16
2019-01-19T11:14:59.501Z,38.16
2019-01-19T11:15:57.435Z,38.17
2019-01-19T11:16:57.604Z,38.35
2019-01-19T11:17:57.480Z,38.85
2019-01-19T11:18:57.885Z,38.52
2019-01-19T11:19:57.260Z,38.73
2019-01-19T11:20:57.760Z,38.67
2019-01-19T11:21:57.274Z,39.03
2019-01-19T11:22:58.096Z,39.12
2019-01-19T11:23:57.358Z,38.84
2019-01-19T11:24:57.143Z,38.66
2019-01-19T11:25:57.924Z,38.55
2019-01-19T11:26:57.826Z,38.53
2019-01-19T11:27:57.901Z,38.54
2019-01-19T11:28:57.923Z,38.63
2019-01-19T11:29:57.348Z,38.65
2019-01-19T11:30:57.679Z,38.74
2019-01-19T11:31:58.335Z,38.83
2019-01-19T11:32:58.188Z,38.57
2019-01-19T11:33:57.437Z,38.12
2019-01-19T11:34:57.377Z,38.69
2019-01-19T11:35:57.559Z,38
2019-01-19T11:36:57.784Z,38.36
2019-01-19T11:37:57.343Z,37.96
2019-01-19T11:38:57.624Z,38.17
2019-01-19T11:39:57.778Z,38.25
2019-01-19T11:40:57.825Z,38.43
2019-01-19T11:41:57.839Z,38.26
2019-01-19T11:42:57.969Z,38.33
2019-01-19T11:43:57.953Z,38.12
2019-01-19T11:44:57.321Z,38.36
2019-01-19T11:45:57.749Z,38.06
2019-01-19T11:46:58.095Z,38.53
2019-01-19T11:47:57.329Z,38.34
2019-01-19T11:48:57.126Z,38.55
2019-01-19T11:49:57.605Z,38.49
2019-01-19T11:50:57.641Z,38.5
2019-01-19T11:51:57.586Z,38.55
2019-01-19T11:52:57.607Z,38.6
2019-01-19T11:53:57.617Z,38.64
2019-01-19T11:54:57.664Z,38.73
2019-01-19T11:55:57.996Z,38.79
2019-01-19T11:56:57.352Z,38.66
2019-01-19T11:57:57.714Z,39.05
2019-01-19T11:58:57.952Z,38.64
2019-01-19T11:59:57.383Z,38.48
2019-01-19T12:00:57.475Z,38.51
2019-01-19T12:01:57.290Z,38.52
2019-01-19T12:02:57.386Z,38.83
2019-01-19T12:03:57.731Z,38.6
2019-01-19T12:04:57.186Z,38.68
2019-01-19T12:05:57.798Z,38.52
2019-01-19T12:06:58.370Z,38.85
2019-01-19T12:07:58.176Z,38.77
2019-01-19T12:08:57.846Z,38.69
2019-01-19T12:09:57.904Z,38.42
2019-01-19T12:10:57.520Z,38.71
2019-01-19T12:11:58.128Z,38.6
2019-01-19T12:12:58.962Z,38.77
2019-01-19T12:13:58.061Z,38.6
2019-01-19T12:14:57.336Z,38.78
2019-01-19T12:15:57.194Z,38.73
2019-01-19T12:16:57.223Z,38.76
2019-01-19T12:17:57.933Z,38.56
2019-01-19T12:18:57.694Z,38.48
2019-01-19T12:19:57.671Z,38.87
2019-01-19T12:20:58.255Z,38.69
2019-01-19T12:21:57.193Z,38.65
2019-01-19T12:22:57.672Z,38.4
2019-01-19T12:23:57.609Z,38.71
2019-01-19T12:24:57.972Z,38.89
2019-01-19T12:25:58.022Z,38.56
2019-01-19T12:26:57.355Z,38.92
2019-01-19T12:27:58.395Z,38.43
2019-01-19T12:28:57.418Z,38.75
2019-01-19T12:29:57.579Z,38.54
2019-01-19T12:30:57.740Z,38.56
2019-01-19T12:31:57.874Z,38.57
2019-01-19T12:32:57.824Z,38.66
2019-01-19T12:33:58.257Z,38.31
2019-01-19T12:34:58.831Z,38.66
2019-01-19T12:35:58.282Z,38.71
2019-01-19T12:36:57.550Z,38.61
2019-01-19T12:37:57.585Z,38.43
2019-01-19T12:38:57.821Z,38.28
2019-01-19T12:39:57.901Z,38.25
2019-01-19T12:40:57.603Z,38.34
2019-01-19T12:41:58.143Z,38.44
2019-01-19T12:42:57.271Z,38.5
2019-01-19T12:43:57.404Z,38.41
2019-01-19T12:44:57.602Z,38.46
2019-01-19T12:45:57.141Z,38.44
2019-01-19T12:46:57.602Z,38.4
2019-01-19T12:47:57.557Z,38.45
2019-01-19T12:48:57.394Z,38.48
2019-01-19T12:49:58.269Z,38.48
2019-01-19T12:50:57.650Z,38.49
2019-01-19T12:51:58.065Z,38.51
2019-01-19T12:52:57.613Z,38.53
2019-01-19T12:53:57.736Z,38.52
2019-01-19T12:54:57.409Z,38.5
2019-01-19T12:55:57.290Z,38.54
2019-01-19T12:56:58.248Z,38.53